チャットラパティー・シヴァージー国際空港の過去48時間の天気

チャットラパティー・シヴァージー国際空港 (Bombay / Santacruz)

現在時刻: 10/24 14:24 IST (10/24 08:54 UTC) 以下の時間は現地時間です。

過去48時間のMETAR気象情報
時間 風向 風速(m/s) 視程 気温(℃) 湿度(%) 気圧(hPa) 天気現象
24 14:00 西南西 6 2500m 31 79 1007 煙霧
24 13:30 南西 6 2500m 32 75 1007 煙霧
24 13:00 西南西 6 2200m 32 75 1008 煙霧
24 12:30 西南西 5 2100m 31 79 1008 煙霧
24 12:00 西南西 5 2100m 31 79 1008 煙霧
24 11:30 3 2100m 32 75 1009 煙霧
24 11:00 4 2100m 31 79 1009 煙霧
24 10:30 3 2100m 31 79 1009 煙霧
24 10:00 南南東 2 2100m 30 84 1010 煙霧
24 09:30 南南西 3 2000m 30 84 1009 煙霧
24 09:00 静穏 0 2000m 30 89 1009 煙霧
24 08:30 2 1600m 29 94 1009 もや
24 08:00 南東 2 1600m 29 89 1009 もや
24 07:30 静穏 0 1600m 28 94 1008 もや
24 07:00 東南東 3 1600m 28 94 1008 もや
24 06:30 東南東 2 2100m 28 94 1007 もや
24 06:00 2 2100m 28 94 1007 もや
24 05:30 2 2100m 28 94 1007 もや
24 05:00 東北東 2 2500m 28 94 1007 もや
24 04:30 静穏 0 2500m 28 94 1006 もや
24 04:00 静穏 0 3000m 28 94 1006 もや
24 03:30 静穏 0 3000m 28 94 1006 煙霧
24 03:00 静穏 0 3000m 29 89 1006 煙霧
24 02:30 静穏 0 3000m 29 89 1007 煙霧
24 02:00 2 3000m 29 89 1007 煙霧
24 01:30 静穏 0 3000m 29 89 1007 煙霧
24 01:00 静穏 0 3000m 30 84 1007 煙霧
24 00:30 静穏 0 3000m 29 89 1007 煙霧
24 00:00 静穏 0 3000m 30 84 1007 煙霧
23 23:30 静穏 0 3000m 30 84 1007 煙霧
23 23:00 静穏 0 3000m 30 84 1008 煙霧
23 22:30 北西 2 3000m 30 84 1008 煙霧
23 22:00 北西 2 3000m 30 79 1008 煙霧
23 21:30 静穏 0 3000m 30 79 1008 煙霧
23 21:00 静穏 0 3000m 30 79 1008 煙霧
23 20:30 北西 2 3000m 30 79 1007 煙霧
23 20:00 西北西 2 3000m 30 79 1007 煙霧
23 19:30 西北西 2 3500m 30 79 1006 煙霧
23 19:00 北西 2 3500m 31 75 1006 煙霧
23 18:30 北西 3 3500m 31 75 1006 煙霧
23 18:00 北西 3 3500m 31 75 1005 煙霧
23 17:30 北西 4 3500m 31 75 1005 煙霧
23 17:00 西 5 3500m 32 71 1004 煙霧
23 16:30 西 5 4000m 32 71 1004 煙霧
23 16:00 西 5 4000m 32 71 1004 煙霧
23 15:30 西 5 3500m 32 71 1004 煙霧
23 15:00 西 5 3500m 32 71 1005 煙霧
23 14:30 西 5 3000m 32 71 1005 煙霧
23 14:00 西南西 5 3000m 32 71 1005 煙霧
23 13:30 西 5 3000m 32 75 1006 煙霧
23 13:00 西南西 3 2500m 33 67 1006 煙霧
23 12:30 西 4 2500m 32 71 1007 煙霧
23 12:00 西 3 2500m 32 71 1007 煙霧
23 11:30 北東 3 2500m 32 67 1008 煙霧
23 11:00 静穏 0 2500m 31 70 1008 煙霧
23 10:30 南南西 2 2500m 31 70 1008 煙霧
23 10:00 静穏 0 2500m 30 75 1008 煙霧
23 09:30 2 2500m 29 79 1008 煙霧
23 09:00 東南東 3 2500m 28 84 1008 煙霧
23 08:30 南東 2 2500m 28 84 1008 煙霧
23 08:00 東南東 3 2500m 27 89 1007 煙霧
23 07:30 2 2500m 26 94 1007 煙霧
23 07:00 2 2500m 26 94 1007 煙霧
23 06:30 南東 2 3000m 26 94 1006 煙霧
23 06:00 静穏 0 4000m 26 94 1006 煙霧
23 05:30 静穏 0 4000m 27 84 1005 煙霧
23 05:00 静穏 0 4000m 27 89 1005 煙霧
23 04:30 静穏 0 4000m 27 89 1005 煙霧
23 04:00 北北東 2 4000m 27 84 1005 煙霧
23 03:30 北東 2 4000m 27 84 1005 煙霧
23 03:00 静穏 0 4000m 26 89 1005 煙霧
23 02:30 静穏 0 4000m 26 89 1006 煙霧
23 02:00 2 4000m 26 89 1006 煙霧
23 01:30 南東 2 4000m 26 89 1006 煙霧
23 01:00 2 4000m 27 84 1006 煙霧
23 00:30 2 4000m 27 89 1007 煙霧
23 00:00 静穏 0 4000m 27 84 1007 煙霧
22 23:30 東北東 2 4000m 27 89 1007 煙霧
22 23:00 北北東 3 4000m 27 89 1007 煙霧
22 22:30 東北東 3 4000m 27 89 1008 煙霧
22 22:00 2 4000m 26 94 1008 煙霧
22 21:30 3 3000m 26 94 1008 煙霧
22 21:00 東南東 3 3000m 27 89 1008 煙霧
22 20:30 北北西 2 3000m 27 89 1007 煙霧
22 20:00 不定 2 2500m 26 89 1007 煙霧
22 19:30 東南東 5 2500m 26 94 1007 弱い雷雨
22 19:00 5 2500m 29 79 1007
22 18:30 北北西 2 2500m 30 84 1006
22 18:00 北西 3 3000m 30 79 1005 煙霧
22 17:30 北北西 6 3000m 30 79 1004 煙霧
22 17:00 北西 5 3000m 31 79 1004 煙霧
22 16:30 西北西 5 3000m 31 79 1004 煙霧
22 16:00 西北西 5 3000m 31 79 1004 煙霧
22 15:30 西北西 5 3000m 31 79 1004 煙霧
22 15:00 西 6 3000m 31 79 1004 煙霧
22 14:30 西 4 3000m 30 84 1005 煙霧
VABB 240830Z 25011KT 2500 HZ FEW020 BKN100 31/27 Q1007 NOSIG
VABB 240800Z 22012KT 2500 HZ FEW020 BKN100 32/27 Q1007 NOSIG
VABB 240730Z 24011KT 2200 HZ FEW020 BKN100 32/27 Q1008 NOSIG
VABB 240700Z 25010KT 2100 HZ FEW020 BKN100 31/27 Q1008 NOSIG
VABB 240630Z 24010KT 2100 HZ FEW020 BKN100 31/27 Q1008 NOSIG
VABB 240600Z 19006KT 2100 HZ FEW020 BKN100 32/27 Q1009 NOSIG
VABB 240530Z 18007KT 2100 HZ FEW020 BKN100 31/27 Q1009 NOSIG
VABB 240500Z 19006KT 2100 HZ FEW020 BKN100 31/27 Q1009 NOSIG
VABB 240430Z 15003KT 2100 HZ FEW020 BKN100 30/27 Q1010 NOSIG
VABB 240400Z 20005KT 2000 HZ FEW020 BKN100 30/27 Q1009 NOSIG
VABB 240330Z 00000KT 2000 HZ FEW020 BKN100 30/28 Q1009 NOSIG
VABB 240300Z 10003KT 1600 BR FEW020 SCT100 29/28 Q1009 NOSIG
VABB 240230Z 14004KT 1600 BR FEW020 SCT100 29/27 Q1009 NOSIG
VABB 240200Z 00000KT 1600 BR FEW020 SCT100 28/27 Q1008 NOSIG
VABB 240130Z 11005KT 1600 BR FEW020 SCT100 28/27 Q1008 NOSIG
VABB 240100Z 12003KT 2100 BR FEW020 SCT100 28/27 Q1007 NOSIG
VABB 240030Z 10004KT 2100 BR FEW020 SCT100 28/27 Q1007 NOSIG
VABB 240000Z 09003KT 2100 BR FEW020 SCT100 28/27 Q1007 NOSIG
VABB 232330Z 07004KT 2500 BR FEW020 SCT100 28/27 Q1007 NOSIG
VABB 232300Z 00000KT 2500 BR FEW020 SCT100 28/27 Q1006 NOSIG
VABB 232230Z 00000KT 3000 BR FEW020 SCT100 28/27 Q1006 NOSIG
VABB 232200Z 00000KT 3000 HZ FEW020 SCT100 28/27 Q1006 NOSIG
VABB 232130Z 00000KT 3000 HZ FEW020 SCT100 29/27 Q1006 NOSIG
VABB 232100Z 00000KT 3000 HZ SCT020 SCT100 29/27 Q1007 NOSIG
VABB 232030Z 10003KT 3000 HZ SCT020 SCT100 29/27 Q1007 NOSIG
VABB 232000Z 00000KT 3000 HZ SCT020 SCT100 29/27 Q1007 NOSIG
VABB 231930Z 00000KT 3000 HZ SCT020 SCT100 30/27 Q1007 NOSIG
VABB 231900Z 00000KT 3000 HZ SCT020 SCT100 29/27 Q1007 NOSIG
VABB 231830Z 00000KT 3000 HZ FEW020 30/27 Q1007 NOSIG
VABB 231800Z 00000KT 3000 HZ FEW020 30/27 Q1007 NOSIG
VABB 231730Z 00000KT 3000 HZ FEW020 30/27 Q1008 NOSIG
VABB 231700Z 32003KT 3000 HZ FEW020 30/27 Q1008 NOSIG
VABB 231630Z 31003KT 3000 HZ FEW020 30/26 Q1008 NOSIG
VABB 231600Z 00000KT 3000 HZ FEW020 30/26 Q1008 NOSIG
VABB 231530Z 00000KT 3000 HZ FEW020 30/26 Q1008 NOSIG
VABB 231500Z 32004KT 3000 HZ FEW020 30/26 Q1007 NOSIG
VABB 231430Z 29003KT 3000 HZ FEW020 30/26 Q1007 NOSIG
VABB 231400Z 30004KT 3500 HZ FEW020 30/26 Q1006 BECMG 3000 HZ
VABB 231330Z 32004KT 3500 HZ FEW020 31/26 Q1006 NOSIG
VABB 231300Z 31006KT 3500 HZ FEW020 31/26 Q1006 NOSIG
VABB 231230Z 31005KT 3500 HZ FEW020 31/26 Q1005 NOSIG
VABB 231200Z 31007KT 3500 HZ FEW025 31/26 Q1005 NOSIG
VABB 231130Z 27010KT 3500 HZ FEW025 32/26 Q1004 NOSIG
VABB 231100Z 28009KT 4000 HZ FEW025 32/26 Q1004 NOSIG
VABB 231030Z 27009KT 4000 HZ FEW020 32/26 Q1004 NOSIG
VABB 231000Z 27010KT 3500 HZ FEW020 32/26 Q1004 BECMG 4000 HZ
VABB 230930Z 26010KT 3500 HZ FEW020 SCT025 32/26 Q1005 NOSIG
VABB 230900Z 27009KT 3000 HZ SCT020 SCT025 32/26 Q1005 NOSIG
VABB 230830Z 25009KT 3000 HZ SCT020 SCT025 32/26 Q1005 NOSIG
VABB 230800Z 26009KT 3000 HZ SCT020 SCT025 32/27 Q1006 NOSIG
VABB 230730Z 25005KT 2500 HZ SCT020 SCT025 33/26 Q1006 BECMG 3000 HZ
VABB 230700Z 26007KT 2500 HZ SCT020 SCT025 32/26 Q1007 NOSIG
VABB 230630Z 26005KT 2500 HZ SCT020 SCT025 32/26 Q1007 NOSIG
VABB 230600Z 04005KT 2500 HZ FEW020 SCT025 32/25 Q1008 NOSIG
VABB 230530Z 00000KT 2500 HZ SCT020 SCT100 31/25 Q1008 NOSIG
VABB 230500Z 20004KT 2500 HZ SCT020 SCT100 31/25 Q1008 NOSIG
VABB 230430Z 00000KT 2500 HZ SCT020 SCT100 30/25 Q1008 NOSIG
VABB 230400Z 08004KT 2500 HZ SCT020 SCT100 29/25 Q1008 NOSIG
VABB 230330Z 11005KT 2500 HZ SCT020 SCT100 28/25 Q1008 NOSIG
VABB 230300Z 13004KT 2500 HZ SCT020 28/25 Q1008 NOSIG
VABB 230230Z 12005KT 2500 HZ FEW020 27/25 Q1007 NOSIG
VABB 230200Z 10004KT 2500 HZ FEW020 SCT100 26/25 Q1007 NOSIG
VABB 230130Z 10004KT 2500 HZ FEW020 SCT100 26/25 Q1007 NOSIG
VABB 230100Z 14004KT 3000 HZ FEW020 SCT100 26/25 Q1006 NOSIG
VABB 230030Z 00000KT 4000 HZ FEW020 BKN100 26/25 Q1006 BECMG 3000 HZ
VABB 230000Z 00000KT 4000 HZ FEW020 BKN100 27/24 Q1005 NOSIG
VABB 222330Z 00000KT 4000 HZ FEW020 BKN100 27/25 Q1005 NOSIG
VABB 222300Z 00000KT 4000 HZ FEW020 BKN100 27/25 Q1005 NOSIG
VABB 222230Z 02003KT 4000 HZ FEW020 BKN100 27/24 Q1005 NOSIG
VABB 222200Z 04004KT 4000 HZ FEW020 BKN100 27/24 Q1005 NOSIG
VABB 222130Z 00000KT 4000 HZ FEW020 BKN100 26/24 Q1005 NOSIG
VABB 222100Z 00000KT 4000 HZ SCT020 BKN100 26/24 Q1006 NOSIG
VABB 222030Z 10004KT 4000 HZ SCT020 BKN100 26/24 Q1006 NOSIG
VABB 222000Z 13004KT 4000 HZ SCT020 BKN100 26/24 Q1006 NOSIG
VABB 221930Z 10004KT 4000 HZ SCT020 BKN100 27/24 Q1006 NOSIG
VABB 221900Z 09004KT 4000 HZ SCT020 BKN100 27/25 Q1007 NOSIG
VABB 221830Z 00000KT 4000 HZ SCT020 BKN090 27/24 Q1007 NOSIG
VABB 221800Z 06004KT 4000 HZ SCT018 SCT025 BKN090 27/25 Q1007 NOSIG
VABB 221730Z 03006KT 4000 HZ SCT018 FEW025TCU BKN090 27/25 Q1007 NOSIG
VABB 221700Z 06006KT 4000 HZ SCT018 FEW025TCU BKN090 27/25 Q1008 NOSIG
VABB 221630Z 09004KT 4000 HZ SCT018 FEW025TCU BKN090 26/25 Q1008 NOSIG
VABB 221600Z 10006KT 3000 HZ SCT018 FEW025TCU BKN090 26/25 Q1008 NOSIG
VABB 221530Z 11006KT 3000 HZ SCT018 FEW030CB BKN090 27/25 Q1008 NOSIG
VABB 221500Z 34004KT 3000 HZ SCT018 FEW030CB BKN090 27/25 Q1007 NOSIG
VABB 221430Z VRB03KT 2500 HZ SCT018 FEW030CB BKN090 26/24 Q1007 BECMG 3000 HZ
VABB 221400Z 12010KT 2500 -TSRA SCT018 FEW030CB BKN090 26/25 Q1007 TEMPO 1500 TSRA
VABB 221330Z 09010KT 2500 TS SCT018 FEW030CB BKN100 29/25 Q1007 TEMPO 1500 TSRA
VABB 221300Z 34004KT 2500 TS SCT018 FEW030CB BKN100 30/27 Q1006 TEMPO 1500 TSRA
VABB 221230Z 32006KT 3000 HZ SCT018 FEW030CB BKN100 30/26 Q1005 NOSIG
VABB 221200Z 33011KT 3000 HZ SCT018 FEW030CB BKN100 30/26 Q1004 NOSIG
VABB 221130Z 31010KT 3000 HZ SCT018 FEW030CB BKN100 31/27 Q1004 NOSIG
VABB 221100Z 30009KT 3000 HZ SCT018 FEW030CB BKN100 31/27 Q1004 NOSIG
VABB 221030Z 30010KT 3000 HZ SCT018 FEW025TCU BKN100 31/27 Q1004 NOSIG
VABB 221000Z 30010KT 3000 HZ SCT018 BKN100 31/27 Q1004 NOSIG
VABB 220930Z 28011KT 3000 HZ SCT018 BKN100 31/27 Q1004 NOSIG
VABB 220900Z 28007KT 3000 HZ SCT018 BKN100 30/27 Q1005 NOSIG